sensor_id;sensor_type;location;lat;lon;timestamp;temperature;humidity
54788;DHT22;59598;48.112;16.280;2024-02-21T00:00:44;7.80;1.00
54788;DHT22;59598;48.112;16.280;2024-02-21T00:03:15;7.80;1.00
54788;DHT22;59598;48.112;16.280;2024-02-21T00:05:46;7.90;99.90
54788;DHT22;59598;48.112;16.280;2024-02-21T00:08:17;7.80;99.90
54788;DHT22;59598;48.112;16.280;2024-02-21T00:10:49;7.90;99.90
54788;DHT22;59598;48.112;16.280;2024-02-21T00:13:20;7.90;99.90
54788;DHT22;59598;48.112;16.280;2024-02-21T00:15:51;7.90;99.90
54788;DHT22;59598;48.112;16.280;2024-02-21T00:18:22;7.90;99.90
54788;DHT22;59598;48.112;16.280;2024-02-21T00:20:54;7.90;99.90
54788;DHT22;59598;48.112;16.280;2024-02-21T00:23:25;7.90;99.90
54788;DHT22;59598;48.112;16.280;2024-02-21T00:25:56;7.90;99.90
54788;DHT22;59598;48.112;16.280;2024-02-21T00:28:27;7.90;99.90
54788;DHT22;59598;48.112;16.280;2024-02-21T00:30:59;7.90;99.90
54788;DHT22;59598;48.112;16.280;2024-02-21T00:33:30;7.90;99.90
54788;DHT22;59598;48.112;16.280;2024-02-21T00:36:01;7.90;99.90
54788;DHT22;59598;48.112;16.280;2024-02-21T00:38:32;7.90;99.90
54788;DHT22;59598;48.112;16.280;2024-02-21T00:41:04;7.80;99.90
54788;DHT22;59598;48.112;16.280;2024-02-21T00:43:35;7.90;99.90
54788;DHT22;59598;48.112;16.280;2024-02-21T00:46:06;7.80;99.90
54788;DHT22;59598;48.112;16.280;2024-02-21T00:48:38;7.70;99.90
54788;DHT22;59598;48.112;16.280;2024-02-21T00:51:09;7.70;99.90
54788;DHT22;59598;48.112;16.280;2024-02-21T00:53:42;7.70;99.90
54788;DHT22;59598;48.112;16.280;2024-02-21T00:56:13;7.60;99.90
54788;DHT22;59598;48.112;16.280;2024-02-21T00:58:44;7.60;99.90
54788;DHT22;59598;48.112;16.280;2024-02-21T01:01:25;7.70;99.90
54788;DHT22;59598;48.112;16.280;2024-02-21T01:03:56;7.70;99.90
54788;DHT22;59598;48.112;16.280;2024-02-21T01:06:27;7.70;99.90
54788;DHT22;59598;48.112;16.280;2024-02-21T01:08:58;7.70;99.90
54788;DHT22;59598;48.112;16.280;2024-02-21T01:11:30;7.70;99.90
54788;DHT22;59598;48.112;16.280;2024-02-21T01:14:01;7.80;99.90
54788;DHT22;59598;48.112;16.280;2024-02-21T01:16:32;7.80;99.90
54788;DHT22;59598;48.112;16.280;2024-02-21T01:19:03;7.70;99.90
54788;DHT22;59598;48.112;16.280;2024-02-21T01:21:34;7.70;99.90
54788;DHT22;59598;48.112;16.280;2024-02-21T01:24:05;7.70;99.90
54788;DHT22;59598;48.112;16.280;2024-02-21T01:26:36;7.80;99.90
54788;DHT22;59598;48.112;16.280;2024-02-21T01:29:08;7.70;99.90
54788;DHT22;59598;48.112;16.280;2024-02-21T01:31:39;7.70;99.90
54788;DHT22;59598;48.112;16.280;2024-02-21T01:34:10;7.80;99.90
54788;DHT22;59598;48.112;16.280;2024-02-21T01:36:41;7.70;99.90
54788;DHT22;59598;48.112;16.280;2024-02-21T01:39:12;7.70;99.90
54788;DHT22;59598;48.112;16.280;2024-02-21T01:41:44;7.80;99.90
54788;DHT22;59598;48.112;16.280;2024-02-21T01:44:15;7.70;99.90
54788;DHT22;59598;48.112;16.280;2024-02-21T01:46:46;7.70;99.90
54788;DHT22;59598;48.112;16.280;2024-02-21T01:49:21;7.70;99.90
54788;DHT22;59598;48.112;16.280;2024-02-21T01:51:52;7.70;99.90
54788;DHT22;59598;48.112;16.280;2024-02-21T01:54:25;7.70;99.90
54788;DHT22;59598;48.112;16.280;2024-02-21T01:56:57;7.70;99.90
54788;DHT22;59598;48.112;16.280;2024-02-21T01:59:28;7.60;99.90
54788;DHT22;59598;48.112;16.280;2024-02-21T02:02:00;7.70;99.90
54788;DHT22;59598;48.112;16.280;2024-02-21T02:04:31;7.70;99.90
54788;DHT22;59598;48.112;16.280;2024-02-21T02:07:04;7.70;99.90
54788;DHT22;59598;48.112;16.280;2024-02-21T02:09:37;7.70;99.90
54788;DHT22;59598;48.112;16.280;2024-02-21T02:12:08;7.70;99.90
54788;DHT22;59598;48.112;16.280;2024-02-21T02:14:39;7.70;99.90
54788;DHT22;59598;48.112;16.280;2024-02-21T02:17:11;7.70;99.90
54788;DHT22;59598;48.112;16.280;2024-02-21T02:19:42;7.70;99.90
54788;DHT22;59598;48.112;16.280;2024-02-21T02:22:16;7.80;99.90
54788;DHT22;59598;48.112;16.280;2024-02-21T02:24:49;7.80;99.90
54788;DHT22;59598;48.112;16.280;2024-02-21T02:27:20;7.80;99.90
54788;DHT22;59598;48.112;16.280;2024-02-21T02:29:53;7.80;99.90
54788;DHT22;59598;48.112;16.280;2024-02-21T02:32:25;7.80;99.90
54788;DHT22;59598;48.112;16.280;2024-02-21T02:34:56;7.80;99.90
54788;DHT22;59598;48.112;16.280;2024-02-21T02:37:27;7.80;99.90
54788;DHT22;59598;48.112;16.280;2024-02-21T02:39:58;7.80;99.90
54788;DHT22;59598;48.112;16.280;2024-02-21T02:42:29;7.80;99.90
54788;DHT22;59598;48.112;16.280;2024-02-21T02:45:00;7.80;99.90
54788;DHT22;59598;48.112;16.280;2024-02-21T02:47:32;7.80;99.90
54788;DHT22;59598;48.112;16.280;2024-02-21T02:50:03;7.90;99.90
54788;DHT22;59598;48.112;16.280;2024-02-21T02:52:34;7.90;99.90
54788;DHT22;59598;48.112;16.280;2024-02-21T02:55:06;7.80;99.90
54788;DHT22;59598;48.112;16.280;2024-02-21T02:57:37;7.90;99.90
54788;DHT22;59598;48.112;16.280;2024-02-21T03:00:11;7.80;99.90
54788;DHT22;59598;48.112;16.280;2024-02-21T03:02:44;7.90;99.90
54788;DHT22;59598;48.112;16.280;2024-02-21T03:05:21;7.90;99.90
54788;DHT22;59598;48.112;16.280;2024-02-21T03:07:52;7.90;99.90
54788;DHT22;59598;48.112;16.280;2024-02-21T03:10:23;7.90;99.90
54788;DHT22;59598;48.112;16.280;2024-02-21T03:12:54;7.90;99.90
54788;DHT22;59598;48.112;16.280;2024-02-21T03:15:26;7.80;99.90
54788;DHT22;59598;48.112;16.280;2024-02-21T03:17:57;7.80;99.90
54788;DHT22;59598;48.112;16.280;2024-02-21T03:20:28;7.80;99.90
54788;DHT22;59598;48.112;16.280;2024-02-21T03:22:59;7.80;99.90
54788;DHT22;59598;48.112;16.280;2024-02-21T03:25:30;7.80;99.90
54788;DHT22;59598;48.112;16.280;2024-02-21T03:28:01;7.80;99.90
54788;DHT22;59598;48.112;16.280;2024-02-21T03:30:33;7.80;99.90
54788;DHT22;59598;48.112;16.280;2024-02-21T03:33:05;7.80;99.90
54788;DHT22;59598;48.112;16.280;2024-02-21T03:35:36;7.70;99.90
54788;DHT22;59598;48.112;16.280;2024-02-21T03:38:07;7.70;99.90
54788;DHT22;59598;48.112;16.280;2024-02-21T03:40:38;7.60;99.90
54788;DHT22;59598;48.112;16.280;2024-02-21T03:43:09;7.60;99.90
54788;DHT22;59598;48.112;16.280;2024-02-21T03:45:40;7.50;99.90
54788;DHT22;59598;48.112;16.280;2024-02-21T03:48:11;7.30;99.90
54788;DHT22;59598;48.112;16.280;2024-02-21T03:50:43;7.10;99.90
54788;DHT22;59598;48.112;16.280;2024-02-21T03:53:29;7.00;99.90
54788;DHT22;59598;48.112;16.280;2024-02-21T03:56:01;6.90;1.00
54788;DHT22;59598;48.112;16.280;2024-02-21T03:58:34;6.80;1.00
54788;DHT22;59598;48.112;16.280;2024-02-21T04:01:06;6.70;1.00
54788;DHT22;59598;48.112;16.280;2024-02-21T04:03:37;6.70;1.00
54788;DHT22;59598;48.112;16.280;2024-02-21T04:06:08;6.70;1.00
54788;DHT22;59598;48.112;16.280;2024-02-21T04:08:39;6.70;1.00
54788;DHT22;59598;48.112;16.280;2024-02-21T04:11:10;6.70;1.00
54788;DHT22;59598;48.112;16.280;2024-02-21T04:13:41;6.70;1.00
54788;DHT22;59598;48.112;16.280;2024-02-21T04:16:13;6.70;1.00
54788;DHT22;59598;48.112;16.280;2024-02-21T04:18:44;6.80;1.00
54788;DHT22;59598;48.112;16.280;2024-02-21T04:21:17;6.80;99.90
54788;DHT22;59598;48.112;16.280;2024-02-21T04:23:48;6.90;99.90
54788;DHT22;59598;48.112;16.280;2024-02-21T04:26:19;6.90;99.90
54788;DHT22;59598;48.112;16.280;2024-02-21T04:28:51;7.00;99.90
54788;DHT22;59598;48.112;16.280;2024-02-21T04:31:22;7.00;99.90
54788;DHT22;59598;48.112;16.280;2024-02-21T04:33:53;7.00;99.90
54788;DHT22;59598;48.112;16.280;2024-02-21T04:36:24;7.00;99.90
54788;DHT22;59598;48.112;16.280;2024-02-21T04:38:55;7.10;99.90
54788;DHT22;59598;48.112;16.280;2024-02-21T04:41:26;7.10;99.90
54788;DHT22;59598;48.112;16.280;2024-02-21T04:43:58;7.10;99.90
54788;DHT22;59598;48.112;16.280;2024-02-21T04:46:29;7.10;99.90
54788;DHT22;59598;48.112;16.280;2024-02-21T04:49:00;7.20;99.90
54788;DHT22;59598;48.112;16.280;2024-02-21T04:51:31;7.20;99.90
54788;DHT22;59598;48.112;16.280;2024-02-21T04:54:02;7.30;99.90
54788;DHT22;59598;48.112;16.280;2024-02-21T04:56:34;7.40;99.90
54788;DHT22;59598;48.112;16.280;2024-02-21T04:59:06;7.30;99.90
54788;DHT22;59598;48.112;16.280;2024-02-21T05:01:37;7.30;99.90
54788;DHT22;59598;48.112;16.280;2024-02-21T05:04:08;7.30;99.90
54788;DHT22;59598;48.112;16.280;2024-02-21T05:06:40;7.20;99.90
54788;DHT22;59598;48.112;16.280;2024-02-21T05:09:12;7.20;99.90
54788;DHT22;59598;48.112;16.280;2024-02-21T05:11:43;7.20;99.90
54788;DHT22;59598;48.112;16.280;2024-02-21T05:14:14;7.20;99.90
54788;DHT22;59598;48.112;16.280;2024-02-21T05:16:46;7.20;99.90
54788;DHT22;59598;48.112;16.280;2024-02-21T05:19:17;7.20;99.90
54788;DHT22;59598;48.112;16.280;2024-02-21T05:21:48;7.20;99.90
54788;DHT22;59598;48.112;16.280;2024-02-21T05:24:19;7.30;99.90
54788;DHT22;59598;48.112;16.280;2024-02-21T05:26:51;7.30;99.90
54788;DHT22;59598;48.112;16.280;2024-02-21T05:29:22;7.30;99.90
54788;DHT22;59598;48.112;16.280;2024-02-21T05:34:24;7.50;85.60
54788;DHT22;59598;48.112;16.280;2024-02-21T05:36:56;7.50;99.40
54788;DHT22;59598;48.112;16.280;2024-02-21T05:39:28;7.50;90.80
54788;DHT22;59598;48.112;16.280;2024-02-21T05:42:00;7.60;60.40
54788;DHT22;59598;48.112;16.280;2024-02-21T05:44:31;7.60;68.10
54788;DHT22;59598;48.112;16.280;2024-02-21T05:47:02;7.60;21.40
54788;DHT22;59598;48.112;16.280;2024-02-21T05:49:33;7.70;13.50
54788;DHT22;59598;48.112;16.280;2024-02-21T05:52:05;7.70;1.00
54788;DHT22;59598;48.112;16.280;2024-02-21T05:54:39;7.80;1.00
54788;DHT22;59598;48.112;16.280;2024-02-21T05:57:11;7.80;1.00
54788;DHT22;59598;48.112;16.280;2024-02-21T05:59:42;7.80;1.00
54788;DHT22;59598;48.112;16.280;2024-02-21T06:02:14;7.80;1.00
54788;DHT22;59598;48.112;16.280;2024-02-21T06:04:45;7.90;1.00
54788;DHT22;59598;48.112;16.280;2024-02-21T06:07:17;7.80;1.00
54788;DHT22;59598;48.112;16.280;2024-02-21T06:09:48;7.90;1.00
54788;DHT22;59598;48.112;16.280;2024-02-21T06:12:19;7.80;1.00
54788;DHT22;59598;48.112;16.280;2024-02-21T06:14:51;7.90;1.00
54788;DHT22;59598;48.112;16.280;2024-02-21T06:17:22;7.90;1.00
54788;DHT22;59598;48.112;16.280;2024-02-21T06:19:54;7.90;1.00
54788;DHT22;59598;48.112;16.280;2024-02-21T06:22:25;7.90;1.00
54788;DHT22;59598;48.112;16.280;2024-02-21T06:24:56;7.90;1.00
54788;DHT22;59598;48.112;16.280;2024-02-21T06:27:27;7.90;1.00
54788;DHT22;59598;48.112;16.280;2024-02-21T06:29:58;7.90;1.00
54788;DHT22;59598;48.112;16.280;2024-02-21T06:32:29;7.90;1.00
54788;DHT22;59598;48.112;16.280;2024-02-21T06:35:01;7.90;1.00
54788;DHT22;59598;48.112;16.280;2024-02-21T06:37:32;7.90;1.00
54788;DHT22;59598;48.112;16.280;2024-02-21T06:40:04;7.90;1.00
54788;DHT22;59598;48.112;16.280;2024-02-21T06:42:35;7.90;1.00
54788;DHT22;59598;48.112;16.280;2024-02-21T06:45:07;8.00;1.00
54788;DHT22;59598;48.112;16.280;2024-02-21T06:47:38;8.00;1.00
54788;DHT22;59598;48.112;16.280;2024-02-21T06:50:10;8.10;1.00
54788;DHT22;59598;48.112;16.280;2024-02-21T06:52:41;8.20;1.00
54788;DHT22;59598;48.112;16.280;2024-02-21T06:55:12;8.20;1.00
54788;DHT22;59598;48.112;16.280;2024-02-21T06:57:43;8.30;1.00
54788;DHT22;59598;48.112;16.280;2024-02-21T07:00:15;8.40;1.00
54788;DHT22;59598;48.112;16.280;2024-02-21T07:02:48;8.40;1.00
54788;DHT22;59598;48.112;16.280;2024-02-21T07:05:19;8.40;1.00
54788;DHT22;59598;48.112;16.280;2024-02-21T07:07:50;8.30;1.00
54788;DHT22;59598;48.112;16.280;2024-02-21T07:10:21;8.30;1.00
54788;DHT22;59598;48.112;16.280;2024-02-21T07:12:52;8.20;1.00
54788;DHT22;59598;48.112;16.280;2024-02-21T07:15:24;8.20;1.00
54788;DHT22;59598;48.112;16.280;2024-02-21T07:17:57;8.20;1.00
54788;DHT22;59598;48.112;16.280;2024-02-21T07:20:28;8.10;1.00
54788;DHT22;59598;48.112;16.280;2024-02-21T07:23:00;8.10;1.00
54788;DHT22;59598;48.112;16.280;2024-02-21T07:25:31;8.20;1.00
54788;DHT22;59598;48.112;16.280;2024-02-21T07:28:02;8.40;1.00
54788;DHT22;59598;48.112;16.280;2024-02-21T07:30:34;8.50;1.00
54788;DHT22;59598;48.112;16.280;2024-02-21T07:33:05;8.60;1.00
54788;DHT22;59598;48.112;16.280;2024-02-21T07:35:38;8.80;1.00
54788;DHT22;59598;48.112;16.280;2024-02-21T07:38:11;9.00;1.00
54788;DHT22;59598;48.112;16.280;2024-02-21T07:40:44;9.30;1.00
54788;DHT22;59598;48.112;16.280;2024-02-21T07:43:15;9.40;1.00
54788;DHT22;59598;48.112;16.280;2024-02-21T07:45:47;9.50;1.00
54788;DHT22;59598;48.112;16.280;2024-02-21T07:48:18;9.50;1.00
54788;DHT22;59598;48.112;16.280;2024-02-21T07:50:50;9.60;1.00
54788;DHT22;59598;48.112;16.280;2024-02-21T07:53:21;9.70;1.00
54788;DHT22;59598;48.112;16.280;2024-02-21T07:55:52;9.70;1.00
54788;DHT22;59598;48.112;16.280;2024-02-21T07:58:24;9.70;1.00
54788;DHT22;59598;48.112;16.280;2024-02-21T08:00:55;9.80;1.00
54788;DHT22;59598;48.112;16.280;2024-02-21T08:03:26;9.90;1.00
54788;DHT22;59598;48.112;16.280;2024-02-21T08:05:57;10.10;1.00
54788;DHT22;59598;48.112;16.280;2024-02-21T08:08:28;10.20;1.00
54788;DHT22;59598;48.112;16.280;2024-02-21T08:10:59;10.30;1.00
54788;DHT22;59598;48.112;16.280;2024-02-21T08:13:31;10.20;1.00
54788;DHT22;59598;48.112;16.280;2024-02-21T08:16:02;10.20;1.00
54788;DHT22;59598;48.112;16.280;2024-02-21T08:18:34;10.20;1.00
54788;DHT22;59598;48.112;16.280;2024-02-21T08:21:09;10.20;1.00
54788;DHT22;59598;48.112;16.280;2024-02-21T08:23:40;10.30;1.00
54788;DHT22;59598;48.112;16.280;2024-02-21T08:26:12;10.50;1.00
54788;DHT22;59598;48.112;16.280;2024-02-21T08:28:43;11.00;1.00
54788;DHT22;59598;48.112;16.280;2024-02-21T08:31:20;11.40;1.00
54788;DHT22;59598;48.112;16.280;2024-02-21T08:33:51;11.70;1.00
54788;DHT22;59598;48.112;16.280;2024-02-21T08:36:22;12.20;1.00
54788;DHT22;59598;48.112;16.280;2024-02-21T08:38:53;12.70;1.00
54788;DHT22;59598;48.112;16.280;2024-02-21T08:41:25;13.00;1.00
54788;DHT22;59598;48.112;16.280;2024-02-21T08:43:56;12.70;1.00
54788;DHT22;59598;48.112;16.280;2024-02-21T08:46:27;12.30;1.00
54788;DHT22;59598;48.112;16.280;2024-02-21T08:48:59;12.00;1.00
54788;DHT22;59598;48.112;16.280;2024-02-21T08:51:30;11.90;1.00
54788;DHT22;59598;48.112;16.280;2024-02-21T08:54:01;12.00;1.00
54788;DHT22;59598;48.112;16.280;2024-02-21T08:56:33;12.10;1.00
54788;DHT22;59598;48.112;16.280;2024-02-21T08:59:05;12.20;1.00
54788;DHT22;59598;48.112;16.280;2024-02-21T09:01:36;12.10;1.00
54788;DHT22;59598;48.112;16.280;2024-02-21T09:04:08;11.90;1.00
54788;DHT22;59598;48.112;16.280;2024-02-21T09:06:39;11.80;1.00
54788;DHT22;59598;48.112;16.280;2024-02-21T09:09:13;11.90;1.00
54788;DHT22;59598;48.112;16.280;2024-02-21T09:11:44;12.00;1.00
54788;DHT22;59598;48.112;16.280;2024-02-21T09:14:15;12.40;1.00
54788;DHT22;59598;48.112;16.280;2024-02-21T09:16:46;12.60;1.00
54788;DHT22;59598;48.112;16.280;2024-02-21T09:19:17;12.70;1.00
54788;DHT22;59598;48.112;16.280;2024-02-21T09:21:49;12.90;1.00
54788;DHT22;59598;48.112;16.280;2024-02-21T09:24:20;12.80;1.00
54788;DHT22;59598;48.112;16.280;2024-02-21T09:26:51;12.90;1.00
54788;DHT22;59598;48.112;16.280;2024-02-21T09:29:22;12.60;1.00
54788;DHT22;59598;48.112;16.280;2024-02-21T09:31:54;12.30;1.00
54788;DHT22;59598;48.112;16.280;2024-02-21T09:34:25;12.00;1.00
54788;DHT22;59598;48.112;16.280;2024-02-21T09:36:56;11.80;1.00
54788;DHT22;59598;48.112;16.280;2024-02-21T09:39:27;11.90;1.00
54788;DHT22;59598;48.112;16.280;2024-02-21T09:42:05;12.00;1.00
54788;DHT22;59598;48.112;16.280;2024-02-21T09:44:38;12.00;1.00
54788;DHT22;59598;48.112;16.280;2024-02-21T09:47:22;12.10;1.00
54788;DHT22;59598;48.112;16.280;2024-02-21T09:49:55;12.10;1.00
54788;DHT22;59598;48.112;16.280;2024-02-21T09:52:28;12.10;1.00
54788;DHT22;59598;48.112;16.280;2024-02-21T09:55:01;12.30;1.00
54788;DHT22;59598;48.112;16.280;2024-02-21T09:57:32;12.20;99.90
54788;DHT22;59598;48.112;16.280;2024-02-21T10:00:05;12.30;99.90
54788;DHT22;59598;48.112;16.280;2024-02-21T10:02:41;12.70;1.00
54788;DHT22;59598;48.112;16.280;2024-02-21T10:05:12;13.30;1.00
54788;DHT22;59598;48.112;16.280;2024-02-21T10:07:44;13.80;1.00
54788;DHT22;59598;48.112;16.280;2024-02-21T10:10:15;14.10;1.00
54788;DHT22;59598;48.112;16.280;2024-02-21T10:12:53;14.50;1.00
54788;DHT22;59598;48.112;16.280;2024-02-21T10:15:28;14.80;1.00
54788;DHT22;59598;48.112;16.280;2024-02-21T10:18:01;15.00;1.00
54788;DHT22;59598;48.112;16.280;2024-02-21T10:20:32;14.80;1.00
54788;DHT22;59598;48.112;16.280;2024-02-21T10:23:05;14.30;99.90
54788;DHT22;59598;48.112;16.280;2024-02-21T10:25:40;14.30;99.90
54788;DHT22;59598;48.112;16.280;2024-02-21T10:28:16;14.20;99.90
54788;DHT22;59598;48.112;16.280;2024-02-21T10:30:52;14.40;1.00
54788;DHT22;59598;48.112;16.280;2024-02-21T10:33:24;14.20;1.00
54788;DHT22;59598;48.112;16.280;2024-02-21T10:36:06;14.30;99.90
54788;DHT22;59598;48.112;16.280;2024-02-21T10:38:39;14.60;99.90
54788;DHT22;59598;48.112;16.280;2024-02-21T10:41:14;15.10;1.00
54788;DHT22;59598;48.112;16.280;2024-02-21T10:43:52;15.50;1.00
54788;DHT22;59598;48.112;16.280;2024-02-21T10:46:24;15.90;1.00
54788;DHT22;59598;48.112;16.280;2024-02-21T10:49:13;16.00;1.00
54788;DHT22;59598;48.112;16.280;2024-02-21T10:51:46;15.80;1.00
54788;DHT22;59598;48.112;16.280;2024-02-21T10:54:45;15.30;1.00
54788;DHT22;59598;48.112;16.280;2024-02-21T10:57:19;14.90;1.00
54788;DHT22;59598;48.112;16.280;2024-02-21T10:59:55;14.60;1.00
54788;DHT22;59598;48.112;16.280;2024-02-21T11:02:27;14.50;1.00
54788;DHT22;59598;48.112;16.280;2024-02-21T11:05:02;14.60;1.00
54788;DHT22;59598;48.112;16.280;2024-02-21T11:07:37;14.70;1.00
54788;DHT22;59598;48.112;16.280;2024-02-21T11:10:29;14.70;1.00
54788;DHT22;59598;48.112;16.280;2024-02-21T11:15:38;14.00;1.00
54788;DHT22;59598;48.112;16.280;2024-02-21T11:18:10;13.60;1.00
54788;DHT22;59598;48.112;16.280;2024-02-21T11:20:49;13.60;1.00
54788;DHT22;59598;48.112;16.280;2024-02-21T11:23:28;13.70;1.00
54788;DHT22;59598;48.112;16.280;2024-02-21T11:26:09;13.70;1.00
54788;DHT22;59598;48.112;16.280;2024-02-21T11:28:40;13.80;1.00
54788;DHT22;59598;48.112;16.280;2024-02-21T11:31:13;13.90;1.00
54788;DHT22;59598;48.112;16.280;2024-02-21T11:33:47;13.90;1.00
54788;DHT22;59598;48.112;16.280;2024-02-21T11:36:27;13.80;1.00
54788;DHT22;59598;48.112;16.280;2024-02-21T11:39:05;13.90;1.00
54788;DHT22;59598;48.112;16.280;2024-02-21T11:41:37;13.80;1.00
54788;DHT22;59598;48.112;16.280;2024-02-21T11:44:08;13.70;1.00
54788;DHT22;59598;48.112;16.280;2024-02-21T11:46:39;13.80;1.00
54788;DHT22;59598;48.112;16.280;2024-02-21T11:49:10;14.00;1.00
54788;DHT22;59598;48.112;16.280;2024-02-21T11:51:41;14.20;1.00
54788;DHT22;59598;48.112;16.280;2024-02-21T11:54:13;14.30;1.00
54788;DHT22;59598;48.112;16.280;2024-02-21T11:56:48;14.70;1.00
54788;DHT22;59598;48.112;16.280;2024-02-21T11:59:19;14.90;1.00
54788;DHT22;59598;48.112;16.280;2024-02-21T12:01:50;14.80;1.00
54788;DHT22;59598;48.112;16.280;2024-02-21T12:04:23;14.80;1.00
54788;DHT22;59598;48.112;16.280;2024-02-21T12:06:57;14.60;1.00
54788;DHT22;59598;48.112;16.280;2024-02-21T12:09:29;13.90;1.00
54788;DHT22;59598;48.112;16.280;2024-02-21T12:12:09;13.50;1.00
54788;DHT22;59598;48.112;16.280;2024-02-21T12:14:40;13.30;1.00
54788;DHT22;59598;48.112;16.280;2024-02-21T12:17:12;13.20;1.00
54788;DHT22;59598;48.112;16.280;2024-02-21T12:19:43;13.40;1.00
54788;DHT22;59598;48.112;16.280;2024-02-21T12:22:20;13.60;1.00
54788;DHT22;59598;48.112;16.280;2024-02-21T12:24:52;13.80;1.00
54788;DHT22;59598;48.112;16.280;2024-02-21T12:27:23;13.60;1.00
54788;DHT22;59598;48.112;16.280;2024-02-21T12:29:54;13.50;1.00
54788;DHT22;59598;48.112;16.280;2024-02-21T12:32:26;13.40;1.00
54788;DHT22;59598;48.112;16.280;2024-02-21T12:34:57;13.30;1.00
54788;DHT22;59598;48.112;16.280;2024-02-21T12:37:28;13.30;1.00
54788;DHT22;59598;48.112;16.280;2024-02-21T12:40:00;13.30;1.00
54788;DHT22;59598;48.112;16.280;2024-02-21T12:42:31;13.50;1.00
54788;DHT22;59598;48.112;16.280;2024-02-21T12:45:03;13.50;1.00
54788;DHT22;59598;48.112;16.280;2024-02-21T12:47:34;13.40;1.00
54788;DHT22;59598;48.112;16.280;2024-02-21T12:50:06;13.40;1.00
54788;DHT22;59598;48.112;16.280;2024-02-21T12:52:38;13.60;1.00
54788;DHT22;59598;48.112;16.280;2024-02-21T12:55:09;13.90;1.00
54788;DHT22;59598;48.112;16.280;2024-02-21T12:57:42;14.10;1.00
54788;DHT22;59598;48.112;16.280;2024-02-21T13:00:13;14.30;1.00
54788;DHT22;59598;48.112;16.280;2024-02-21T13:02:45;14.60;1.00
54788;DHT22;59598;48.112;16.280;2024-02-21T13:05:17;14.60;1.00
54788;DHT22;59598;48.112;16.280;2024-02-21T13:07:48;14.50;1.00
54788;DHT22;59598;48.112;16.280;2024-02-21T13:10:20;14.50;1.00
54788;DHT22;59598;48.112;16.280;2024-02-21T13:12:52;14.70;1.00
54788;DHT22;59598;48.112;16.280;2024-02-21T13:15:23;14.40;1.00
54788;DHT22;59598;48.112;16.280;2024-02-21T13:17:56;14.30;1.00
54788;DHT22;59598;48.112;16.280;2024-02-21T13:20:28;14.50;1.00
54788;DHT22;59598;48.112;16.280;2024-02-21T13:23:00;14.90;1.00
54788;DHT22;59598;48.112;16.280;2024-02-21T13:25:31;15.20;1.00
54788;DHT22;59598;48.112;16.280;2024-02-21T13:28:02;15.30;1.00
54788;DHT22;59598;48.112;16.280;2024-02-21T13:30:34;15.30;1.00
54788;DHT22;59598;48.112;16.280;2024-02-21T13:33:06;15.80;1.00
54788;DHT22;59598;48.112;16.280;2024-02-21T13:35:38;16.70;1.00
54788;DHT22;59598;48.112;16.280;2024-02-21T13:38:09;17.10;1.00
54788;DHT22;59598;48.112;16.280;2024-02-21T13:40:41;17.50;1.00
54788;DHT22;59598;48.112;16.280;2024-02-21T13:43:13;18.40;1.00
54788;DHT22;59598;48.112;16.280;2024-02-21T13:45:59;18.90;99.90
54788;DHT22;59598;48.112;16.280;2024-02-21T13:48:30;18.20;99.90
54788;DHT22;59598;48.112;16.280;2024-02-21T13:51:02;18.90;1.00
54788;DHT22;59598;48.112;16.280;2024-02-21T13:53:33;21.00;1.00
54788;DHT22;59598;48.112;16.280;2024-02-21T13:56:05;22.00;1.00
54788;DHT22;59598;48.112;16.280;2024-02-21T13:58:37;21.80;99.90
54788;DHT22;59598;48.112;16.280;2024-02-21T14:01:08;20.80;99.90
54788;DHT22;59598;48.112;16.280;2024-02-21T14:03:40;20.10;1.00
54788;DHT22;59598;48.112;16.280;2024-02-21T14:06:12;18.60;1.00
54788;DHT22;59598;48.112;16.280;2024-02-21T14:08:43;17.60;1.00
54788;DHT22;59598;48.112;16.280;2024-02-21T14:11:14;17.00;1.00
54788;DHT22;59598;48.112;16.280;2024-02-21T14:13:45;16.60;1.00
54788;DHT22;59598;48.112;16.280;2024-02-21T14:16:17;16.20;1.00
54788;DHT22;59598;48.112;16.280;2024-02-21T14:18:48;16.00;1.00
54788;DHT22;59598;48.112;16.280;2024-02-21T14:21:19;15.90;1.00
54788;DHT22;59598;48.112;16.280;2024-02-21T14:23:50;15.60;1.00
54788;DHT22;59598;48.112;16.280;2024-02-21T14:26:21;15.40;1.00
54788;DHT22;59598;48.112;16.280;2024-02-21T14:28:53;15.60;1.00
54788;DHT22;59598;48.112;16.280;2024-02-21T14:31:24;15.70;1.00
54788;DHT22;59598;48.112;16.280;2024-02-21T14:33:58;15.60;1.00
54788;DHT22;59598;48.112;16.280;2024-02-21T14:36:30;15.20;1.00
54788;DHT22;59598;48.112;16.280;2024-02-21T14:39:01;14.90;1.00
54788;DHT22;59598;48.112;16.280;2024-02-21T14:41:34;14.70;1.00
54788;DHT22;59598;48.112;16.280;2024-02-21T14:44:06;14.60;1.00
54788;DHT22;59598;48.112;16.280;2024-02-21T14:46:40;14.70;1.00
54788;DHT22;59598;48.112;16.280;2024-02-21T14:49:11;14.60;1.00
54788;DHT22;59598;48.112;16.280;2024-02-21T14:51:42;14.50;1.00
54788;DHT22;59598;48.112;16.280;2024-02-21T14:54:14;14.40;1.00
54788;DHT22;59598;48.112;16.280;2024-02-21T14:56:45;14.30;1.00
54788;DHT22;59598;48.112;16.280;2024-02-21T14:59:17;14.30;1.00
54788;DHT22;59598;48.112;16.280;2024-02-21T15:01:49;14.10;1.00
54788;DHT22;59598;48.112;16.280;2024-02-21T15:04:20;14.10;1.00
54788;DHT22;59598;48.112;16.280;2024-02-21T15:06:51;14.10;1.00
54788;DHT22;59598;48.112;16.280;2024-02-21T15:09:22;13.90;1.00
54788;DHT22;59598;48.112;16.280;2024-02-21T15:11:54;13.70;1.00
54788;DHT22;59598;48.112;16.280;2024-02-21T15:14:25;13.60;1.00
54788;DHT22;59598;48.112;16.280;2024-02-21T15:16:56;13.70;1.00
54788;DHT22;59598;48.112;16.280;2024-02-21T15:19:27;13.80;1.00
54788;DHT22;59598;48.112;16.280;2024-02-21T15:21:58;13.80;1.00
54788;DHT22;59598;48.112;16.280;2024-02-21T15:24:30;13.60;1.00
54788;DHT22;59598;48.112;16.280;2024-02-21T15:27:01;13.40;1.00
54788;DHT22;59598;48.112;16.280;2024-02-21T15:29:33;13.10;1.00
54788;DHT22;59598;48.112;16.280;2024-02-21T15:32:05;12.90;1.00
54788;DHT22;59598;48.112;16.280;2024-02-21T15:34:36;12.80;1.00
54788;DHT22;59598;48.112;16.280;2024-02-21T15:37:07;12.80;1.00
54788;DHT22;59598;48.112;16.280;2024-02-21T15:39:39;12.80;1.00
54788;DHT22;59598;48.112;16.280;2024-02-21T15:42:10;12.90;1.00
54788;DHT22;59598;48.112;16.280;2024-02-21T15:44:41;12.80;1.00
54788;DHT22;59598;48.112;16.280;2024-02-21T15:47:12;12.60;1.00
54788;DHT22;59598;48.112;16.280;2024-02-21T15:49:43;12.50;1.00
54788;DHT22;59598;48.112;16.280;2024-02-21T15:52:15;12.30;1.00
54788;DHT22;59598;48.112;16.280;2024-02-21T15:54:46;12.30;1.00
54788;DHT22;59598;48.112;16.280;2024-02-21T15:57:17;12.30;1.00
54788;DHT22;59598;48.112;16.280;2024-02-21T15:59:48;12.30;1.00
54788;DHT22;59598;48.112;16.280;2024-02-21T16:02:25;12.10;1.00
54788;DHT22;59598;48.112;16.280;2024-02-21T16:04:56;11.90;1.00
54788;DHT22;59598;48.112;16.280;2024-02-21T16:07:27;11.80;1.00